sensor_id;sensor_type;location;lat;lon;timestamp;temperature;humidity
66582;SHT31;53438;48.898;2.308;2023-03-05T00:01:19;6.78;71.49
66582;SHT31;53438;48.898;2.308;2023-03-05T00:03:47;6.78;71.61
66582;SHT31;53438;48.898;2.308;2023-03-05T00:06:12;6.85;71.63
66582;SHT31;53438;48.898;2.308;2023-03-05T00:08:38;6.75;72.22
66582;SHT31;53438;48.898;2.308;2023-03-05T00:11:06;6.75;72.49
66582;SHT31;53438;48.898;2.308;2023-03-05T00:13:32;6.75;72.62
66582;SHT31;53438;48.898;2.308;2023-03-05T00:15:58;6.78;72.61
66582;SHT31;53438;48.898;2.308;2023-03-05T00:18:24;6.71;73.07
66582;SHT31;53438;48.898;2.308;2023-03-05T00:20:49;6.69;73.20
66582;SHT31;53438;48.898;2.308;2023-03-05T00:23:15;6.58;74.17
66582;SHT31;53438;48.898;2.308;2023-03-05T00:25:41;6.65;74.09
66582;SHT31;53438;48.898;2.308;2023-03-05T00:28:07;6.75;74.08
66582;SHT31;53438;48.898;2.308;2023-03-05T00:30:34;6.82;73.70
66582;SHT31;53438;48.898;2.308;2023-03-05T00:33:00;6.78;73.86
66582;SHT31;53438;48.898;2.308;2023-03-05T00:35:26;6.75;73.93
66582;SHT31;53438;48.898;2.308;2023-03-05T00:37:52;6.75;74.12
66582;SHT31;53438;48.898;2.308;2023-03-05T00:40:19;6.71;74.20
66582;SHT31;53438;48.898;2.308;2023-03-05T00:42:44;6.74;74.22
66582;SHT31;53438;48.898;2.308;2023-03-05T00:45:10;6.68;74.42
66582;SHT31;53438;48.898;2.308;2023-03-05T00:47:35;6.76;74.08
66582;SHT31;53438;48.898;2.308;2023-03-05T00:50:02;6.74;74.44
66582;SHT31;53438;48.898;2.308;2023-03-05T00:52:28;6.68;74.75
66582;SHT31;53438;48.898;2.308;2023-03-05T00:54:53;6.69;74.82
66582;SHT31;53438;48.898;2.308;2023-03-05T00:57:18;6.63;75.05
66582;SHT31;53438;48.898;2.308;2023-03-05T00:59:44;6.59;75.09
66582;SHT31;53438;48.898;2.308;2023-03-05T04:02:26;6.41;79.49
66582;SHT31;53438;48.898;2.308;2023-03-05T04:04:52;6.26;80.14
66582;SHT31;53438;48.898;2.308;2023-03-05T04:07:18;6.31;79.93
66582;SHT31;53438;48.898;2.308;2023-03-05T04:09:43;6.31;79.97
66582;SHT31;53438;48.898;2.308;2023-03-05T04:12:09;6.36;79.86
66582;SHT31;53438;48.898;2.308;2023-03-05T04:14:35;6.31;79.81
66582;SHT31;53438;48.898;2.308;2023-03-05T04:17:00;6.23;80.27
66582;SHT31;53438;48.898;2.308;2023-03-05T04:19:25;6.31;79.98
66582;SHT31;53438;48.898;2.308;2023-03-05T04:21:52;6.27;80.16
66582;SHT31;53438;48.898;2.308;2023-03-05T04:24:17;6.28;80.04
66582;SHT31;53438;48.898;2.308;2023-03-05T04:26:43;6.45;79.76
66582;SHT31;53438;48.898;2.308;2023-03-05T04:29:08;6.42;79.83
66582;SHT31;53438;48.898;2.308;2023-03-05T04:31:33;6.45;79.53
66582;SHT31;53438;48.898;2.308;2023-03-05T04:33:59;6.55;79.06
66582;SHT31;53438;48.898;2.308;2023-03-05T04:36:24;6.45;79.45
66582;SHT31;53438;48.898;2.308;2023-03-05T04:38:49;6.36;79.66
66582;SHT31;53438;48.898;2.308;2023-03-05T04:41:15;6.38;79.71
66582;SHT31;53438;48.898;2.308;2023-03-05T04:43:40;6.30;80.10
66582;SHT31;53438;48.898;2.308;2023-03-05T04:46:05;6.23;80.18
66582;SHT31;53438;48.898;2.308;2023-03-05T04:48:31;6.26;80.26
66582;SHT31;53438;48.898;2.308;2023-03-05T04:50:56;6.23;80.35
66582;SHT31;53438;48.898;2.308;2023-03-05T04:53:22;6.28;80.17
66582;SHT31;53438;48.898;2.308;2023-03-05T04:55:54;6.24;80.27
66582;SHT31;53438;48.898;2.308;2023-03-05T04:58:20;6.31;80.01
66582;SHT31;53438;48.898;2.308;2023-03-05T05:00:46;6.27;80.00
66582;SHT31;53438;48.898;2.308;2023-03-05T05:03:11;6.41;79.65
66582;SHT31;53438;48.898;2.308;2023-03-05T05:05:37;6.64;78.72
66582;SHT31;53438;48.898;2.308;2023-03-05T05:08:02;6.47;79.06
66582;SHT31;53438;48.898;2.308;2023-03-05T05:10:28;6.44;79.51
66582;SHT31;53438;48.898;2.308;2023-03-05T05:12:53;6.45;78.95
66582;SHT31;53438;48.898;2.308;2023-03-05T05:15:19;6.33;79.34
66582;SHT31;53438;48.898;2.308;2023-03-05T05:17:45;6.13;80.05
66582;SHT31;53438;48.898;2.308;2023-03-05T05:20:12;6.18;80.03
66582;SHT31;53438;48.898;2.308;2023-03-05T05:22:38;6.28;79.76
66582;SHT31;53438;48.898;2.308;2023-03-05T05:25:04;6.18;79.80
66582;SHT31;53438;48.898;2.308;2023-03-05T05:27:30;6.11;80.04
66582;SHT31;53438;48.898;2.308;2023-03-05T05:29:55;6.10;79.95
66582;SHT31;53438;48.898;2.308;2023-03-05T05:32:22;6.16;80.33
66582;SHT31;53438;48.898;2.308;2023-03-05T05:34:52;6.10;80.06
66582;SHT31;53438;48.898;2.308;2023-03-05T05:37:17;6.24;79.99
66582;SHT31;53438;48.898;2.308;2023-03-05T05:39:44;6.28;79.61
66582;SHT31;53438;48.898;2.308;2023-03-05T05:42:17;6.37;79.16
66582;SHT31;53438;48.898;2.308;2023-03-05T05:44:44;6.24;79.41
66582;SHT31;53438;48.898;2.308;2023-03-05T05:47:12;6.26;79.55
66582;SHT31;53438;48.898;2.308;2023-03-05T05:49:38;6.30;79.29
66582;SHT31;53438;48.898;2.308;2023-03-05T05:52:03;6.27;79.38
66582;SHT31;53438;48.898;2.308;2023-03-05T05:54:29;6.34;79.20
66582;SHT31;53438;48.898;2.308;2023-03-05T05:56:54;6.21;79.44
66582;SHT31;53438;48.898;2.308;2023-03-05T05:59:19;6.20;79.67
66582;SHT31;53438;48.898;2.308;2023-03-05T06:01:45;6.14;79.91
66582;SHT31;53438;48.898;2.308;2023-03-05T06:04:10;6.18;79.69
66582;SHT31;53438;48.898;2.308;2023-03-05T06:06:36;6.14;79.78
66582;SHT31;53438;48.898;2.308;2023-03-05T06:09:01;6.16;79.94
66582;SHT31;53438;48.898;2.308;2023-03-05T06:11:27;6.17;79.66
66582;SHT31;53438;48.898;2.308;2023-03-05T06:13:53;6.18;79.85
66582;SHT31;53438;48.898;2.308;2023-03-05T06:16:21;6.34;79.32
66582;SHT31;53438;48.898;2.308;2023-03-05T06:18:48;6.23;79.61
66582;SHT31;53438;48.898;2.308;2023-03-05T06:21:15;6.23;79.46
66582;SHT31;53438;48.898;2.308;2023-03-05T06:23:41;6.20;79.53
66582;SHT31;53438;48.898;2.308;2023-03-05T06:26:08;6.16;79.87
66582;SHT31;53438;48.898;2.308;2023-03-05T06:28:35;6.11;80.06
66582;SHT31;53438;48.898;2.308;2023-03-05T06:31:01;6.13;80.06
66582;SHT31;53438;48.898;2.308;2023-03-05T06:33:27;6.17;79.85
66582;SHT31;53438;48.898;2.308;2023-03-05T06:35:52;6.27;79.36
66582;SHT31;53438;48.898;2.308;2023-03-05T06:38:18;6.20;79.57
66582;SHT31;53438;48.898;2.308;2023-03-05T06:40:43;6.21;79.74
66582;SHT31;53438;48.898;2.308;2023-03-05T06:43:08;6.17;79.83
66582;SHT31;53438;48.898;2.308;2023-03-05T06:45:34;6.17;79.80
66582;SHT31;53438;48.898;2.308;2023-03-05T06:47:59;6.24;79.46
66582;SHT31;53438;48.898;2.308;2023-03-05T06:50:24;6.10;79.64
66582;SHT31;53438;48.898;2.308;2023-03-05T06:52:51;5.97;80.33
66582;SHT31;53438;48.898;2.308;2023-03-05T06:55:17;5.93;80.45
66582;SHT31;53438;48.898;2.308;2023-03-05T06:57:43;5.95;80.14
66582;SHT31;53438;48.898;2.308;2023-03-05T07:00:09;6.00;79.92
66582;SHT31;53438;48.898;2.308;2023-03-05T07:02:38;6.00;79.73
66582;SHT31;53438;48.898;2.308;2023-03-05T07:05:05;5.97;79.88
66582;SHT31;53438;48.898;2.308;2023-03-05T07:07:31;6.06;79.74
66582;SHT31;53438;48.898;2.308;2023-03-05T07:09:57;6.13;79.50
66582;SHT31;53438;48.898;2.308;2023-03-05T07:12:22;6.26;79.25
66582;SHT31;53438;48.898;2.308;2023-03-05T07:14:48;6.23;78.92
66582;SHT31;53438;48.898;2.308;2023-03-05T07:17:13;6.33;78.70
66582;SHT31;53438;48.898;2.308;2023-03-05T07:19:41;6.33;78.75
66582;SHT31;53438;48.898;2.308;2023-03-05T07:22:07;6.28;78.74
66582;SHT31;53438;48.898;2.308;2023-03-05T07:24:33;6.17;79.20
66582;SHT31;53438;48.898;2.308;2023-03-05T07:26:58;6.13;79.71
66582;SHT31;53438;48.898;2.308;2023-03-05T07:29:27;6.06;80.02
66582;SHT31;53438;48.898;2.308;2023-03-05T07:31:54;6.10;80.03
66582;SHT31;53438;48.898;2.308;2023-03-05T07:34:19;6.20;79.74
66582;SHT31;53438;48.898;2.308;2023-03-05T07:36:45;6.24;79.52
66582;SHT31;53438;48.898;2.308;2023-03-05T07:39:11;6.07;79.55
66582;SHT31;53438;48.898;2.308;2023-03-05T07:41:37;6.11;79.68
66582;SHT31;53438;48.898;2.308;2023-03-05T07:44:03;6.23;79.42
66582;SHT31;53438;48.898;2.308;2023-03-05T07:46:30;6.14;79.19
66582;SHT31;53438;48.898;2.308;2023-03-05T07:48:56;6.21;79.18
66582;SHT31;53438;48.898;2.308;2023-03-05T07:51:23;6.27;78.94
66582;SHT31;53438;48.898;2.308;2023-03-05T07:53:50;6.36;78.71
66582;SHT31;53438;48.898;2.308;2023-03-05T07:58:48;6.07;79.62
66582;SHT31;53438;48.898;2.308;2023-03-05T08:01:14;6.05;79.86
66582;SHT31;53438;48.898;2.308;2023-03-05T08:03:40;6.13;79.66
66582;SHT31;53438;48.898;2.308;2023-03-05T08:06:07;6.18;79.50
66582;SHT31;53438;48.898;2.308;2023-03-05T08:08:33;6.27;79.53
66582;SHT31;53438;48.898;2.308;2023-03-05T08:11:05;6.31;79.32
66582;SHT31;53438;48.898;2.308;2023-03-05T08:13:32;6.38;78.73
66582;SHT31;53438;48.898;2.308;2023-03-05T08:15:58;6.41;78.67
66582;SHT31;53438;48.898;2.308;2023-03-05T08:18:23;6.40;78.32
66582;SHT31;53438;48.898;2.308;2023-03-05T08:20:50;6.54;78.15
66582;SHT31;53438;48.898;2.308;2023-03-05T08:23:15;6.36;78.58
66582;SHT31;53438;48.898;2.308;2023-03-05T08:25:41;6.40;78.58
66582;SHT31;53438;48.898;2.308;2023-03-05T08:28:06;6.31;78.75
66582;SHT31;53438;48.898;2.308;2023-03-05T08:30:33;6.34;79.10
66582;SHT31;53438;48.898;2.308;2023-03-05T08:32:58;6.27;79.35
66582;SHT31;53438;48.898;2.308;2023-03-05T08:35:24;6.26;79.35
66582;SHT31;53438;48.898;2.308;2023-03-05T08:37:49;6.33;79.36
66582;SHT31;53438;48.898;2.308;2023-03-05T08:40:15;6.42;78.73
66582;SHT31;53438;48.898;2.308;2023-03-05T08:42:42;6.37;79.01
66582;SHT31;53438;48.898;2.308;2023-03-05T08:45:08;6.41;78.83
66582;SHT31;53438;48.898;2.308;2023-03-05T08:47:34;6.40;78.96
66582;SHT31;53438;48.898;2.308;2023-03-05T08:50:02;6.48;78.68
66582;SHT31;53438;48.898;2.308;2023-03-05T08:52:28;6.44;78.62
66582;SHT31;53438;48.898;2.308;2023-03-05T08:54:53;6.48;78.52
66582;SHT31;53438;48.898;2.308;2023-03-05T08:57:18;6.59;77.99
66582;SHT31;53438;48.898;2.308;2023-03-05T08:59:44;6.49;78.21
66582;SHT31;53438;48.898;2.308;2023-03-05T09:02:12;6.48;78.16
66582;SHT31;53438;48.898;2.308;2023-03-05T09:04:37;6.52;78.05
66582;SHT31;53438;48.898;2.308;2023-03-05T09:07:03;6.41;78.74
66582;SHT31;53438;48.898;2.308;2023-03-05T09:09:29;6.41;78.78
66582;SHT31;53438;48.898;2.308;2023-03-05T09:11:57;6.45;78.85
66582;SHT31;53438;48.898;2.308;2023-03-05T09:14:23;6.45;78.65
66582;SHT31;53438;48.898;2.308;2023-03-05T09:16:48;6.44;78.19
66582;SHT31;53438;48.898;2.308;2023-03-05T09:19:14;6.52;77.85
66582;SHT31;53438;48.898;2.308;2023-03-05T09:21:39;6.52;77.58
66582;SHT31;53438;48.898;2.308;2023-03-05T09:24:05;6.59;77.49
66582;SHT31;53438;48.898;2.308;2023-03-05T09:26:31;6.57;77.27
66582;SHT31;53438;48.898;2.308;2023-03-05T09:28:58;6.55;77.50
66582;SHT31;53438;48.898;2.308;2023-03-05T09:31:23;6.54;77.22
66582;SHT31;53438;48.898;2.308;2023-03-05T09:33:49;6.58;77.04
66582;SHT31;53438;48.898;2.308;2023-03-05T09:36:28;6.68;76.78
66582;SHT31;53438;48.898;2.308;2023-03-05T09:38:55;6.68;76.24
66582;SHT31;53438;48.898;2.308;2023-03-05T09:44:39;6.79;75.92
66582;SHT31;53438;48.898;2.308;2023-03-05T09:47:25;6.85;75.47
66582;SHT31;53438;48.898;2.308;2023-03-05T09:50:39;6.89;75.34
66582;SHT31;53438;48.898;2.308;2023-03-05T09:55:58;6.86;75.55
66582;SHT31;53438;48.898;2.308;2023-03-05T09:58:33;6.79;75.37
66582;SHT31;53438;48.898;2.308;2023-03-05T10:01:09;6.78;75.32
66582;SHT31;53438;48.898;2.308;2023-03-05T10:03:58;6.75;75.54
66582;SHT31;53438;48.898;2.308;2023-03-05T10:06:31;6.84;75.32
66582;SHT31;53438;48.898;2.308;2023-03-05T10:09:12;6.74;75.13
66582;SHT31;53438;48.898;2.308;2023-03-05T10:12:04;6.65;75.32
66582;SHT31;53438;48.898;2.308;2023-03-05T10:14:34;6.71;75.46
66582;SHT31;53438;48.898;2.308;2023-03-05T10:22:23;6.97;74.51
66582;SHT31;53438;48.898;2.308;2023-03-05T10:27:46;6.69;74.83
66582;SHT31;53438;48.898;2.308;2023-03-05T10:46:31;6.75;76.03
66582;SHT31;53438;48.898;2.308;2023-03-05T10:49:06;6.85;76.23
66582;SHT31;53438;48.898;2.308;2023-03-05T10:54:34;6.91;75.27
66582;SHT31;53438;48.898;2.308;2023-03-05T10:59:48;6.95;73.73
66582;SHT31;53438;48.898;2.308;2023-03-05T11:02:15;6.93;72.90
66582;SHT31;53438;48.898;2.308;2023-03-05T11:04:40;7.02;73.34
66582;SHT31;53438;48.898;2.308;2023-03-05T11:07:33;6.99;72.51
66582;SHT31;53438;48.898;2.308;2023-03-05T11:12:29;7.02;72.91
66582;SHT31;53438;48.898;2.308;2023-03-05T11:17:41;7.02;71.07
66582;SHT31;53438;48.898;2.308;2023-03-05T11:23:18;7.17;71.56
66582;SHT31;53438;48.898;2.308;2023-03-05T11:25:49;7.27;71.21
66582;SHT31;53438;48.898;2.308;2023-03-05T11:28:18;6.99;70.84
66582;SHT31;53438;48.898;2.308;2023-03-05T11:30:57;6.84;71.60
66582;SHT31;53438;48.898;2.308;2023-03-05T11:33:23;6.96;71.81
66582;SHT31;53438;48.898;2.308;2023-03-05T11:35:50;7.02;71.53
66582;SHT31;53438;48.898;2.308;2023-03-05T11:38:24;7.13;71.95
66582;SHT31;53438;48.898;2.308;2023-03-05T11:40:51;7.16;71.92
66582;SHT31;53438;48.898;2.308;2023-03-05T11:43:19;7.22;71.91
66582;SHT31;53438;48.898;2.308;2023-03-05T11:45:47;7.17;72.44
66582;SHT31;53438;48.898;2.308;2023-03-05T11:48:24;7.22;72.41
66582;SHT31;53438;48.898;2.308;2023-03-05T11:50:56;7.31;72.26
66582;SHT31;53438;48.898;2.308;2023-03-05T11:53:25;7.37;72.26
66582;SHT31;53438;48.898;2.308;2023-03-05T11:55:58;7.38;71.74
66582;SHT31;53438;48.898;2.308;2023-03-05T11:58:42;7.42;71.20
66582;SHT31;53438;48.898;2.308;2023-03-05T12:01:43;7.38;71.43
66582;SHT31;53438;48.898;2.308;2023-03-05T12:04:09;7.30;70.35
66582;SHT31;53438;48.898;2.308;2023-03-05T12:06:43;7.28;70.70
66582;SHT31;53438;48.898;2.308;2023-03-05T12:11:38;7.16;70.75
66582;SHT31;53438;48.898;2.308;2023-03-05T12:14:23;7.13;71.03
66582;SHT31;53438;48.898;2.308;2023-03-05T12:16:53;7.22;70.53
66582;SHT31;53438;48.898;2.308;2023-03-05T12:19:39;7.17;70.71
66582;SHT31;53438;48.898;2.308;2023-03-05T12:22:25;7.19;70.55
66582;SHT31;53438;48.898;2.308;2023-03-05T12:25:25;7.17;69.98
66582;SHT31;53438;48.898;2.308;2023-03-05T12:27:51;7.24;69.92
66582;SHT31;53438;48.898;2.308;2023-03-05T12:32:57;7.28;69.67
66582;SHT31;53438;48.898;2.308;2023-03-05T12:35:29;7.31;68.90
66582;SHT31;53438;48.898;2.308;2023-03-05T12:37:58;7.20;68.50
66582;SHT31;53438;48.898;2.308;2023-03-05T12:40:31;7.19;68.42
66582;SHT31;53438;48.898;2.308;2023-03-05T12:43:04;7.12;68.48
66582;SHT31;53438;48.898;2.308;2023-03-05T12:45:34;7.12;68.48
66582;SHT31;53438;48.898;2.308;2023-03-05T12:53:11;7.09;67.92
66582;SHT31;53438;48.898;2.308;2023-03-05T13:03:56;7.02;67.77
66582;SHT31;53438;48.898;2.308;2023-03-05T13:06:33;7.12;67.80
66582;SHT31;53438;48.898;2.308;2023-03-05T13:12:03;7.16;66.99
66582;SHT31;53438;48.898;2.308;2023-03-05T13:14:40;7.23;66.78
66582;SHT31;53438;48.898;2.308;2023-03-05T13:17:54;7.34;66.66
66582;SHT31;53438;48.898;2.308;2023-03-05T13:20:38;7.31;66.68
66582;SHT31;53438;48.898;2.308;2023-03-05T13:25:32;7.54;66.48
66582;SHT31;53438;48.898;2.308;2023-03-05T13:28:05;7.46;66.73
66582;SHT31;53438;48.898;2.308;2023-03-05T13:30:34;7.30;67.12
66582;SHT31;53438;48.898;2.308;2023-03-05T13:33:01;7.15;67.57
66582;SHT31;53438;48.898;2.308;2023-03-05T13:35:28;7.15;67.59
66582;SHT31;53438;48.898;2.308;2023-03-05T13:37:54;7.19;67.32
66582;SHT31;53438;48.898;2.308;2023-03-05T13:40:25;7.24;66.78
66582;SHT31;53438;48.898;2.308;2023-03-05T13:42:51;7.28;66.71
66582;SHT31;53438;48.898;2.308;2023-03-05T13:45:30;7.38;65.83
66582;SHT31;53438;48.898;2.308;2023-03-05T13:48:00;7.46;66.27
66582;SHT31;53438;48.898;2.308;2023-03-05T13:50:37;7.37;66.54
66582;SHT31;53438;48.898;2.308;2023-03-05T13:53:29;7.37;66.94
66582;SHT31;53438;48.898;2.308;2023-03-05T13:55:58;7.47;67.00
66582;SHT31;53438;48.898;2.308;2023-03-05T14:01:28;7.47;66.99
66582;SHT31;53438;48.898;2.308;2023-03-05T14:04:02;7.50;66.46
66582;SHT31;53438;48.898;2.308;2023-03-05T14:06:29;7.36;65.75
66582;SHT31;53438;48.898;2.308;2023-03-05T14:09:05;7.46;65.81
66582;SHT31;53438;48.898;2.308;2023-03-05T14:11:32;7.34;65.68
66582;SHT31;53438;48.898;2.308;2023-03-05T14:14:05;7.46;65.74
66582;SHT31;53438;48.898;2.308;2023-03-05T14:16:32;7.40;65.25
66582;SHT31;53438;48.898;2.308;2023-03-05T14:19:03;7.43;64.80
66582;SHT31;53438;48.898;2.308;2023-03-05T14:21:47;7.46;64.56
66582;SHT31;53438;48.898;2.308;2023-03-05T14:24:25;7.31;64.26
66582;SHT31;53438;48.898;2.308;2023-03-05T14:27:15;7.30;63.03
66582;SHT31;53438;48.898;2.308;2023-03-05T14:29:45;7.31;62.53
66582;SHT31;53438;48.898;2.308;2023-03-05T14:32:31;7.36;61.87
66582;SHT31;53438;48.898;2.308;2023-03-05T14:34:58;7.43;62.41
66582;SHT31;53438;48.898;2.308;2023-03-05T14:37:29;7.34;61.92
66582;SHT31;53438;48.898;2.308;2023-03-05T14:39:58;7.33;62.51
66582;SHT31;53438;48.898;2.308;2023-03-05T14:44:55;7.33;63.66
66582;SHT31;53438;48.898;2.308;2023-03-05T14:47:25;7.40;63.87
66582;SHT31;53438;48.898;2.308;2023-03-05T14:49:51;7.38;64.81
66582;SHT31;53438;48.898;2.308;2023-03-05T14:52:21;7.44;65.14
66582;SHT31;53438;48.898;2.308;2023-03-05T14:54:47;7.44;65.31
66582;SHT31;53438;48.898;2.308;2023-03-05T14:57:25;7.36;63.82
66582;SHT31;53438;48.898;2.308;2023-03-05T14:59:51;7.34;64.02
66582;SHT31;53438;48.898;2.308;2023-03-05T15:02:19;7.43;64.05
66582;SHT31;53438;48.898;2.308;2023-03-05T15:04:45;7.50;64.18
66582;SHT31;53438;48.898;2.308;2023-03-05T15:07:20;7.54;64.02
66582;SHT31;53438;48.898;2.308;2023-03-05T15:09:46;7.58;63.94
66582;SHT31;53438;48.898;2.308;2023-03-05T15:12:14;7.66;63.96
66582;SHT31;53438;48.898;2.308;2023-03-05T15:14:39;7.68;63.77
66582;SHT31;53438;48.898;2.308;2023-03-05T15:17:31;7.63;64.45
66582;SHT31;53438;48.898;2.308;2023-03-05T15:19:57;7.70;64.56
66582;SHT31;53438;48.898;2.308;2023-03-05T15:22:23;7.70;64.22
66582;SHT31;53438;48.898;2.308;2023-03-05T15:24:48;7.73;64.15
66582;SHT31;53438;48.898;2.308;2023-03-05T15:27:14;7.84;64.08
66582;SHT31;53438;48.898;2.308;2023-03-05T15:29:39;7.68;64.21
66582;SHT31;53438;48.898;2.308;2023-03-05T15:32:05;7.66;64.88
66582;SHT31;53438;48.898;2.308;2023-03-05T15:34:31;7.61;64.30
66582;SHT31;53438;48.898;2.308;2023-03-05T15:37:00;7.67;64.37
66582;SHT31;53438;48.898;2.308;2023-03-05T15:39:26;7.64;64.17
66582;SHT31;53438;48.898;2.308;2023-03-05T15:41:52;7.71;64.16
66582;SHT31;53438;48.898;2.308;2023-03-05T15:44:19;7.78;64.16
66582;SHT31;53438;48.898;2.308;2023-03-05T15:46:44;7.58;64.32
66582;SHT31;53438;48.898;2.308;2023-03-05T15:49:10;7.54;64.51
66582;SHT31;53438;48.898;2.308;2023-03-05T15:51:35;7.51;64.48
66582;SHT31;53438;48.898;2.308;2023-03-05T15:54:04;7.54;64.40
66582;SHT31;53438;48.898;2.308;2023-03-05T15:56:29;7.64;64.44
66582;SHT31;53438;48.898;2.308;2023-03-05T15:58:55;7.66;63.95
66582;SHT31;53438;48.898;2.308;2023-03-05T16:01:21;7.70;63.75
66582;SHT31;53438;48.898;2.308;2023-03-05T16:03:48;7.66;64.12
66582;SHT31;53438;48.898;2.308;2023-03-05T16:06:14;7.70;64.12
66582;SHT31;53438;48.898;2.308;2023-03-05T16:08:41;7.74;63.92
66582;SHT31;53438;48.898;2.308;2023-03-05T16:11:09;7.78;63.76
66582;SHT31;53438;48.898;2.308;2023-03-05T16:13:35;7.75;62.97
66582;SHT31;53438;48.898;2.308;2023-03-05T16:16:02;7.78;63.10
66582;SHT31;53438;48.898;2.308;2023-03-05T16:18:29;7.82;62.96
66582;SHT31;53438;48.898;2.308;2023-03-05T16:20:56;7.81;62.83
66582;SHT31;53438;48.898;2.308;2023-03-05T16:23:22;7.78;62.77
66582;SHT31;53438;48.898;2.308;2023-03-05T16:25:47;7.81;62.59
66582;SHT31;53438;48.898;2.308;2023-03-05T16:28:13;7.63;61.31
66582;SHT31;53438;48.898;2.308;2023-03-05T16:30:39;7.51;61.65
66582;SHT31;53438;48.898;2.308;2023-03-05T16:33:05;7.54;61.51
66582;SHT31;53438;48.898;2.308;2023-03-05T16:35:30;7.61;61.78
66582;SHT31;53438;48.898;2.308;2023-03-05T16:37:55;7.66;61.52
66582;SHT31;53438;48.898;2.308;2023-03-05T16:40:21;7.47;61.13
66582;SHT31;53438;48.898;2.308;2023-03-05T16:42:47;7.50;61.40
66582;SHT31;53438;48.898;2.308;2023-03-05T16:45:12;7.58;61.32
66582;SHT31;53438;48.898;2.308;2023-03-05T16:47:38;7.58;61.28
66582;SHT31;53438;48.898;2.308;2023-03-05T16:50:05;7.58;61.30
66582;SHT31;53438;48.898;2.308;2023-03-05T16:52:31;7.56;61.30
66582;SHT31;53438;48.898;2.308;2023-03-05T16:54:57;7.57;61.50
66582;SHT31;53438;48.898;2.308;2023-03-05T16:57:22;7.61;61.52
66582;SHT31;53438;48.898;2.308;2023-03-05T16:59:50;7.63;61.58
66582;SHT31;53438;48.898;2.308;2023-03-05T17:02:15;7.67;61.62
66582;SHT31;53438;48.898;2.308;2023-03-05T17:04:41;7.71;61.54
66582;SHT31;53438;48.898;2.308;2023-03-05T17:07:06;7.63;61.36
66582;SHT31;53438;48.898;2.308;2023-03-05T17:09:35;7.57;61.41
66582;SHT31;53438;48.898;2.308;2023-03-05T17:12:00;7.58;61.68
66582;SHT31;53438;48.898;2.308;2023-03-05T17:14:26;7.50;62.08
66582;SHT31;53438;48.898;2.308;2023-03-05T17:16:52;7.50;62.57
66582;SHT31;53438;48.898;2.308;2023-03-05T17:19:17;7.42;63.23
66582;SHT31;53438;48.898;2.308;2023-03-05T17:21:43;7.43;64.16
66582;SHT31;53438;48.898;2.308;2023-03-05T17:24:09;7.50;64.54
66582;SHT31;53438;48.898;2.308;2023-03-05T17:26:34;7.54;64.40
66582;SHT31;53438;48.898;2.308;2023-03-05T17:29:03;7.44;64.55
66582;SHT31;53438;48.898;2.308;2023-03-05T17:31:29;7.27;65.02
66582;SHT31;53438;48.898;2.308;2023-03-05T17:33:56;7.31;65.11
66582;SHT31;53438;48.898;2.308;2023-03-05T17:36:22;7.28;65.26
66582;SHT31;53438;48.898;2.308;2023-03-05T17:38:48;7.42;65.39
66582;SHT31;53438;48.898;2.308;2023-03-05T17:41:15;7.30;65.48
66582;SHT31;53438;48.898;2.308;2023-03-05T17:43:41;7.42;65.51
66582;SHT31;53438;48.898;2.308;2023-03-05T17:46:07;7.40;65.68
66582;SHT31;53438;48.898;2.308;2023-03-05T17:48:33;7.44;65.64
66582;SHT31;53438;48.898;2.308;2023-03-05T17:51:04;7.48;65.38
66582;SHT31;53438;48.898;2.308;2023-03-05T17:53:30;7.40;65.01
66582;SHT31;53438;48.898;2.308;2023-03-05T17:55:55;7.46;65.30
66582;SHT31;53438;48.898;2.308;2023-03-05T17:58:21;7.50;65.30
66582;SHT31;53438;48.898;2.308;2023-03-05T18:00:46;7.40;64.73
66582;SHT31;53438;48.898;2.308;2023-03-05T18:03:12;7.36;64.96
66582;SHT31;53438;48.898;2.308;2023-03-05T18:05:37;7.33;65.02
66582;SHT31;53438;48.898;2.308;2023-03-05T18:08:03;7.37;65.21
66582;SHT31;53438;48.898;2.308;2023-03-05T18:10:31;7.28;64.36
66582;SHT31;53438;48.898;2.308;2023-03-05T18:12:56;7.34;64.75
66582;SHT31;53438;48.898;2.308;2023-03-05T18:15:24;7.40;65.16
66582;SHT31;53438;48.898;2.308;2023-03-05T18:17:50;7.33;64.70
66582;SHT31;53438;48.898;2.308;2023-03-05T18:20:33;7.24;64.92
66582;SHT31;53438;48.898;2.308;2023-03-05T18:23:01;7.28;64.94
66582;SHT31;53438;48.898;2.308;2023-03-05T18:25:28;7.31;64.59
66582;SHT31;53438;48.898;2.308;2023-03-05T18:27:58;7.19;64.74
66582;SHT31;53438;48.898;2.308;2023-03-05T18:30:25;7.22;64.55
66582;SHT31;53438;48.898;2.308;2023-03-05T18:32:51;7.28;64.70
66582;SHT31;53438;48.898;2.308;2023-03-05T18:35:16;7.28;64.55
66582;SHT31;53438;48.898;2.308;2023-03-05T18:37:42;7.36;64.51
66582;SHT31;53438;48.898;2.308;2023-03-05T18:40:11;7.40;64.59
66582;SHT31;53438;48.898;2.308;2023-03-05T18:42:37;7.43;64.19
66582;SHT31;53438;48.898;2.308;2023-03-05T18:45:06;7.44;64.21
66582;SHT31;53438;48.898;2.308;2023-03-05T18:47:34;7.46;64.44
66582;SHT31;53438;48.898;2.308;2023-03-05T18:49:59;7.36;64.24
66582;SHT31;53438;48.898;2.308;2023-03-05T18:52:25;7.15;64.54
66582;SHT31;53438;48.898;2.308;2023-03-05T18:54:50;7.27;64.76
66582;SHT31;53438;48.898;2.308;2023-03-05T18:57:15;7.36;64.95
66582;SHT31;53438;48.898;2.308;2023-03-05T18:59:41;7.28;64.36
66582;SHT31;53438;48.898;2.308;2023-03-05T19:02:14;7.27;64.41
66582;SHT31;53438;48.898;2.308;2023-03-05T19:04:39;7.24;64.30
66582;SHT31;53438;48.898;2.308;2023-03-05T19:07:05;7.33;64.67
66582;SHT31;53438;48.898;2.308;2023-03-05T19:10:00;7.27;64.82
66582;SHT31;53438;48.898;2.308;2023-03-05T19:15:38;7.06;65.27
66582;SHT31;53438;48.898;2.308;2023-03-05T19:18:03;7.17;65.28
66582;SHT31;53438;48.898;2.308;2023-03-05T19:20:29;7.17;65.28
66582;SHT31;53438;48.898;2.308;2023-03-05T19:22:54;7.22;65.41
66582;SHT31;53438;48.898;2.308;2023-03-05T19:25:19;7.27;65.44
66582;SHT31;53438;48.898;2.308;2023-03-05T19:27:45;7.33;65.26
66582;SHT31;53438;48.898;2.308;2023-03-05T19:30:12;7.19;65.42
66582;SHT31;53438;48.898;2.308;2023-03-05T19:32:40;7.16;65.56
66582;SHT31;53438;48.898;2.308;2023-03-05T19:35:06;7.26;65.49
66582;SHT31;53438;48.898;2.308;2023-03-05T19:37:32;7.30;65.04
66582;SHT31;53438;48.898;2.308;2023-03-05T19:39:58;7.36;65.07
66582;SHT31;53438;48.898;2.308;2023-03-05T19:42:23;7.33;65.15
66582;SHT31;53438;48.898;2.308;2023-03-05T19:44:49;7.26;65.27
66582;SHT31;53438;48.898;2.308;2023-03-05T19:47:14;7.27;65.20
66582;SHT31;53438;48.898;2.308;2023-03-05T19:49:39;7.13;65.19
66582;SHT31;53438;48.898;2.308;2023-03-05T19:52:05;7.20;65.29
66582;SHT31;53438;48.898;2.308;2023-03-05T19:54:30;7.15;65.34
66582;SHT31;53438;48.898;2.308;2023-03-05T19:56:56;7.13;66.16
66582;SHT31;53438;48.898;2.308;2023-03-05T19:59:23;7.19;66.37
66582;SHT31;53438;48.898;2.308;2023-03-05T20:01:49;7.07;66.70
66582;SHT31;53438;48.898;2.308;2023-03-05T20:04:20;7.02;67.03
66582;SHT31;53438;48.898;2.308;2023-03-05T20:06:46;7.12;67.07
66582;SHT31;53438;48.898;2.308;2023-03-05T20:09:12;7.17;66.92
66582;SHT31;53438;48.898;2.308;2023-03-05T20:11:38;7.20;66.77